createdAt,value
2019-02-19T00:00:54.810Z,60.12
2019-02-19T00:01:54.410Z,60.22
2019-02-19T00:02:54.390Z,60.30
2019-02-19T00:03:54.380Z,60.19
2019-02-19T00:04:54.363Z,59.89
2019-02-19T00:05:54.351Z,59.78
2019-02-19T00:06:54.369Z,59.89
2019-02-19T00:07:54.338Z,59.89
2019-02-19T00:08:54.357Z,59.47
2019-02-19T00:09:54.311Z,59.68
2019-02-19T00:10:54.328Z,59.99
2019-02-19T00:11:54.306Z,59.68
2019-02-19T00:12:54.284Z,59.78
2019-02-19T00:13:54.274Z,59.78
2019-02-19T00:14:54.259Z,59.27
2019-02-19T00:15:54.250Z,59.37
2019-02-19T00:16:54.280Z,59.24
2019-02-19T00:17:54.223Z,59.37
2019-02-19T00:18:54.226Z,59.27
2019-02-19T00:19:54.204Z,59.17
2019-02-19T00:20:54.197Z,59.03
2019-02-19T00:21:54.188Z,58.75
2019-02-19T00:22:54.243Z,58.83
2019-02-19T00:23:54.185Z,58.96
2019-02-19T00:24:54.232Z,58.45
2019-02-19T00:25:54.167Z,58.75
2019-02-19T00:26:54.160Z,58.65
2019-02-19T00:27:54.149Z,58.62
2019-02-19T00:28:54.128Z,58.83
2019-02-19T00:29:54.096Z,58.93
2019-02-19T00:30:54.084Z,59.06
2019-02-19T00:31:54.165Z,58.86
2019-02-19T00:32:54.112Z,59.37
2019-02-19T00:33:54.059Z,59.37
2019-02-19T00:34:54.045Z,59.27
2019-02-19T00:35:54.038Z,59.17
2019-02-19T00:36:54.024Z,59.37
2019-02-19T00:37:54.060Z,59.37
2019-02-19T00:38:54.039Z,58.86
2019-02-19T00:39:53.994Z,59.47
2019-02-19T00:40:53.977Z,58.65
2019-02-19T00:41:53.967Z,58.86
2019-02-19T00:42:54.001Z,58.65
2019-02-19T00:43:53.947Z,58.86
2019-02-19T00:44:53.943Z,59.47
2019-02-19T00:45:53.929Z,59.17
2019-02-19T00:46:53.920Z,59.58
2019-02-19T00:47:53.932Z,59.37
2019-02-19T00:48:53.897Z,59.37
2019-02-19T00:49:53.896Z,59.37
2019-02-19T00:50:53.874Z,59.27
2019-02-19T00:51:53.878Z,59.37
2019-02-19T00:52:53.908Z,58.65
2019-02-19T00:53:53.870Z,58.75
2019-02-19T00:54:53.829Z,59.17
2019-02-19T00:55:53.823Z,58.65
2019-02-19T00:56:53.820Z,58.93
2019-02-19T00:57:53.803Z,58.73
2019-02-19T00:58:53.822Z,58.45
2019-02-19T00:59:53.781Z,58.75
2019-02-19T01:00:53.764Z,58.96
2019-02-19T01:01:53.756Z,59.17
2019-02-19T01:02:53.744Z,58.96
2019-02-19T01:03:53.765Z,58.86
2019-02-19T01:04:53.743Z,59.47
2019-02-19T01:05:53.744Z,59.06
2019-02-19T01:06:53.704Z,59.30
2019-02-19T01:07:53.704Z,59.27
2019-02-19T01:08:53.677Z,59.91
2019-02-19T01:09:53.700Z,59.81
2019-02-19T01:10:53.675Z,58.96
2019-02-19T01:11:53.650Z,59.47
2019-02-19T01:12:53.635Z,59.47
2019-02-19T01:13:53.626Z,59.78
2019-02-19T01:14:53.643Z,59.47
2019-02-19T01:15:53.604Z,59.27
2019-02-19T01:16:53.602Z,59.27
2019-02-19T01:17:53.588Z,59.27
2019-02-19T01:18:53.578Z,58.86
2019-02-19T01:19:53.569Z,58.75
2019-02-19T01:20:53.875Z,58.75
2019-02-19T01:21:53.564Z,58.45
2019-02-19T01:22:53.528Z,58.86
2019-02-19T01:23:53.519Z,59.40
2019-02-19T01:24:53.514Z,59.68
2019-02-19T01:25:53.536Z,59.70
2019-02-19T01:26:53.486Z,59.50
2019-02-19T01:27:53.479Z,59.81
2019-02-19T01:28:53.474Z,59.81
2019-02-19T01:29:53.460Z,59.91
2019-02-19T01:30:53.484Z,59.68
2019-02-19T01:31:53.437Z,59.78
2019-02-19T01:32:53.423Z,59.70
2019-02-19T01:33:53.410Z,59.91
2019-02-19T01:34:53.403Z,59.91
2019-02-19T01:35:53.421Z,59.91
2019-02-19T01:36:53.386Z,59.68
2019-02-19T01:37:53.386Z,59.58
2019-02-19T01:38:53.455Z,59.50
2019-02-19T01:39:53.387Z,59.06
2019-02-19T01:40:53.418Z,59.30
2019-02-19T01:41:53.361Z,59.17
2019-02-19T01:42:53.324Z,58.65
2019-02-19T01:43:53.312Z,58.45
2019-02-19T01:44:53.294Z,58.65
2019-02-19T01:45:53.283Z,58.65
2019-02-19T01:46:53.312Z,58.75
2019-02-19T01:47:53.262Z,58.01
2019-02-19T01:48:53.257Z,58.14
2019-02-19T01:49:53.273Z,59.17
2019-02-19T01:50:53.246Z,58.75
2019-02-19T01:51:53.242Z,59.06
2019-02-19T01:52:53.237Z,58.75
2019-02-19T01:53:53.253Z,58.75
2019-02-19T01:54:53.189Z,58.96
2019-02-19T01:55:53.181Z,59.06
2019-02-19T01:56:53.172Z,58.65
2019-02-19T01:57:53.160Z,58.75
2019-02-19T01:58:53.174Z,58.96
2019-02-19T01:59:53.135Z,58.54
2019-02-19T02:00:53.770Z,58.65
2019-02-19T02:01:53.208Z,58.65
2019-02-19T02:02:53.140Z,58.75
2019-02-19T02:03:53.121Z,59.37
2019-02-19T02:04:53.083Z,59.06
2019-02-19T02:05:53.076Z,58.89
2019-02-19T02:06:53.061Z,59.50
2019-02-19T02:07:53.073Z,59.40
2019-02-19T02:08:53.075Z,59.50
2019-02-19T02:09:53.039Z,59.81
2019-02-19T02:10:53.027Z,59.91
2019-02-19T02:11:53.017Z,59.91
2019-02-19T02:12:52.997Z,59.81
2019-02-19T02:13:53.012Z,59.70
2019-02-19T02:14:52.982Z,59.91
2019-02-19T02:15:52.972Z,59.70
2019-02-19T02:16:52.989Z,59.61
2019-02-19T02:17:52.948Z,59.50
2019-02-19T02:18:52.978Z,59.19
2019-02-19T02:19:52.923Z,59.40
2019-02-19T02:20:52.922Z,59.61
2019-02-19T02:21:52.908Z,59.70
2019-02-19T02:22:52.923Z,58.89
2019-02-19T02:23:52.888Z,59.40
2019-02-19T02:24:52.914Z,59.53
2019-02-19T02:25:52.905Z,59.84
2019-02-19T02:26:52.847Z,59.70
2019-02-19T02:27:52.835Z,60.05
2019-02-19T02:28:52.834Z,60.35
2019-02-19T02:29:52.826Z,60.25
2019-02-19T02:30:52.833Z,60.15
2019-02-19T02:31:52.794Z,60.56
2019-02-19T02:32:52.794Z,60.56
2019-02-19T02:33:52.862Z,60.46
2019-02-19T02:34:52.799Z,60.59
2019-02-19T02:35:52.763Z,60.49
2019-02-19T02:36:52.745Z,60.46
2019-02-19T02:37:52.733Z,60.89
2019-02-19T02:38:52.718Z,60.89
2019-02-19T02:39:52.780Z,60.46
2019-02-19T02:40:52.705Z,60.56
2019-02-19T02:41:52.731Z,60.56
2019-02-19T02:42:52.683Z,60.25
2019-02-19T02:43:52.677Z,60.15
2019-02-19T02:44:52.659Z,59.94
2019-02-19T02:45:53.895Z,59.94
2019-02-19T02:46:52.655Z,59.94
2019-02-19T02:47:52.633Z,60.02
2019-02-19T02:48:52.662Z,59.70
2019-02-19T02:49:52.603Z,60.05
2019-02-19T02:50:52.626Z,59.74
2019-02-19T02:51:52.588Z,59.84
2019-02-19T02:52:52.581Z,60.25
2019-02-19T02:53:52.567Z,60.59
2019-02-19T02:54:52.558Z,60.35
2019-02-19T02:55:52.592Z,60.79
2019-02-19T02:56:52.528Z,60.59
2019-02-19T02:57:52.518Z,60.59
2019-02-19T02:58:52.510Z,60.35
2019-02-19T02:59:52.498Z,60.25
2019-02-19T03:00:52.503Z,60.35
2019-02-19T03:01:52.515Z,60.25
2019-02-19T03:02:52.464Z,60.15
2019-02-19T03:03:52.467Z,60.15
2019-02-19T03:04:52.455Z,60.05
2019-02-19T03:05:52.445Z,60.15
2019-02-19T03:06:52.461Z,60.05
2019-02-19T03:07:52.420Z,60.25
2019-02-19T03:08:52.402Z,60.15
2019-02-19T03:09:52.390Z,59.94
2019-02-19T03:10:52.377Z,60.15
2019-02-19T03:11:52.369Z,60.17
2019-02-19T03:12:52.409Z,60.28
2019-02-19T03:13:52.360Z,60.28
2019-02-19T03:14:52.348Z,60.17
2019-02-19T03:15:52.332Z,60.69
2019-02-19T03:16:52.324Z,60.59
2019-02-19T03:17:52.306Z,60.79
2019-02-19T03:18:52.326Z,60.59
2019-02-19T03:19:52.293Z,60.69
2019-02-19T03:20:52.271Z,60.89
2019-02-19T03:21:52.261Z,60.93
2019-02-19T03:22:52.267Z,61.10
2019-02-19T03:23:52.275Z,60.82
2019-02-19T03:24:52.259Z,61.33
2019-02-19T03:25:52.224Z,61.44
2019-02-19T03:26:52.222Z,61.24
2019-02-19T03:27:52.297Z,61.33
2019-02-19T03:28:52.184Z,61.44
2019-02-19T03:29:52.206Z,61.44
2019-02-19T03:30:52.166Z,61.24
2019-02-19T03:31:52.161Z,61.54
2019-02-19T03:32:52.150Z,61.54
2019-02-19T03:33:52.146Z,61.44
2019-02-19T03:34:52.154Z,61.44
2019-02-19T03:35:52.113Z,61.65
2019-02-19T03:36:52.109Z,61.47
2019-02-19T03:37:52.094Z,61.54
2019-02-19T03:38:52.083Z,61.44
2019-02-19T03:39:52.103Z,61.33
2019-02-19T03:40:52.103Z,61.13
2019-02-19T03:41:52.048Z,61.13
2019-02-19T03:42:52.036Z,61.24
2019-02-19T03:43:52.029Z,61.54
2019-02-19T03:44:52.067Z,61.26
2019-02-19T03:45:52.008Z,61.57
2019-02-19T03:46:52.000Z,61.44
2019-02-19T03:47:51.987Z,61.36
2019-02-19T03:48:51.974Z,61.44
2019-02-19T03:49:51.960Z,61.57
2019-02-19T03:50:52.472Z,61.44
2019-02-19T03:51:51.960Z,61.24
2019-02-19T03:52:51.929Z,61.13
2019-02-19T03:53:51.923Z,61.03
2019-02-19T03:54:51.921Z,61.13
2019-02-19T03:55:51.922Z,61.24
2019-02-19T03:56:51.891Z,61.24
2019-02-19T03:57:51.914Z,61.13
2019-02-19T03:58:51.871Z,61.36
2019-02-19T03:59:51.858Z,61.13
2019-02-19T04:00:51.875Z,61.24
2019-02-19T04:01:51.838Z,61.16
2019-02-19T04:02:51.821Z,61.16
2019-02-19T04:03:51.807Z,61.36
2019-02-19T04:04:51.806Z,61.24
2019-02-19T04:05:51.795Z,61.33
2019-02-19T04:06:51.821Z,61.36
2019-02-19T04:07:51.766Z,61.44
2019-02-19T04:08:51.764Z,61.36
2019-02-19T04:09:51.749Z,61.26
2019-02-19T04:10:51.739Z,61.47
2019-02-19T04:11:51.742Z,61.36
2019-02-19T04:12:51.744Z,61.57
2019-02-19T04:13:51.707Z,61.68
2019-02-19T04:14:51.697Z,61.68
2019-02-19T04:15:51.682Z,61.57
2019-02-19T04:16:51.675Z,61.47
2019-02-19T04:17:51.696Z,61.47
2019-02-19T04:18:51.685Z,61.47
2019-02-19T04:19:51.644Z,61.47
2019-02-19T04:20:51.627Z,61.57
2019-02-19T04:21:51.617Z,61.57
2019-02-19T04:22:51.644Z,61.57
2019-02-19T04:23:51.632Z,61.47
2019-02-19T04:24:51.583Z,61.36
2019-02-19T04:25:51.572Z,61.68
2019-02-19T04:26:51.562Z,61.47
2019-02-19T04:27:51.554Z,61.47
2019-02-19T04:28:51.581Z,61.36
2019-02-19T04:29:51.535Z,61.78
2019-02-19T04:30:51.531Z,61.78
2019-02-19T04:31:51.515Z,61.68
2019-02-19T04:32:51.531Z,61.57
2019-02-19T04:33:51.512Z,61.47
2019-02-19T04:34:51.477Z,61.57
2019-02-19T04:35:51.471Z,61.57
2019-02-19T04:36:51.463Z,61.68
2019-02-19T04:37:51.489Z,61.47
2019-02-19T04:38:51.433Z,61.57
2019-02-19T04:39:51.421Z,61.68
2019-02-19T04:40:51.418Z,62.01
2019-02-19T04:41:51.405Z,61.78
2019-02-19T04:42:51.416Z,61.68
2019-02-19T04:43:51.414Z,61.78
2019-02-19T04:44:51.372Z,61.88
2019-02-19T04:45:51.391Z,61.98
2019-02-19T04:46:51.352Z,61.57
2019-02-19T04:47:51.378Z,61.68
2019-02-19T04:48:51.334Z,61.47
2019-02-19T04:49:51.320Z,61.68
2019-02-19T04:50:51.344Z,61.47
2019-02-19T04:51:51.302Z,61.57
2019-02-19T04:52:51.282Z,61.47
2019-02-19T04:53:51.271Z,61.68
2019-02-19T04:54:51.268Z,61.57
2019-02-19T04:55:51.288Z,61.47
2019-02-19T04:56:51.239Z,61.68
2019-02-19T04:57:51.227Z,62.01
2019-02-19T04:58:51.216Z,62.12
2019-02-19T04:59:51.213Z,62.12
2019-02-19T05:00:51.234Z,62.12
2019-02-19T05:01:51.194Z,62.08
2019-02-19T05:02:51.650Z,62.22
2019-02-19T05:03:51.169Z,62.01
2019-02-19T05:04:51.155Z,62.53
2019-02-19T05:05:51.173Z,62.32
2019-02-19T05:06:51.130Z,62.43
2019-02-19T05:07:51.118Z,62.53
2019-02-19T05:08:51.115Z,62.43
2019-02-19T05:09:51.105Z,62.43
2019-02-19T05:10:51.117Z,62.53
2019-02-19T05:11:51.081Z,62.22
2019-02-19T05:12:51.129Z,62.12
2019-02-19T05:13:51.078Z,62.19
2019-02-19T05:14:51.050Z,62.22
2019-02-19T05:15:51.057Z,62.43
2019-02-19T05:16:51.054Z,62.32
2019-02-19T05:17:51.018Z,62.32
2019-02-19T05:18:51.001Z,62.63
2019-02-19T05:19:50.994Z,62.74
2019-02-19T05:20:51.024Z,62.32
2019-02-19T05:21:50.975Z,62.74
2019-02-19T05:22:50.963Z,62.53
2019-02-19T05:23:50.960Z,62.53
2019-02-19T05:24:50.939Z,62.53
2019-02-19T05:25:50.960Z,62.63
2019-02-19T05:26:50.922Z,62.43
2019-02-19T05:27:50.911Z,62.74
2019-02-19T05:28:50.895Z,62.53
2019-02-19T05:29:50.888Z,62.84
2019-02-19T05:30:50.901Z,62.84
2019-02-19T05:31:50.862Z,63.04
2019-02-19T05:32:50.859Z,63.04
2019-02-19T05:33:50.845Z,63.25
2019-02-19T05:34:50.836Z,63.15
2019-02-19T05:35:50.850Z,63.15
2019-02-19T05:36:50.810Z,62.74
2019-02-19T05:37:50.798Z,62.84
2019-02-19T05:38:50.785Z,62.63
2019-02-19T05:39:50.777Z,63.04
2019-02-19T05:40:50.801Z,63.15
2019-02-19T05:41:50.761Z,63.15
2019-02-19T05:42:50.744Z,63.25
2019-02-19T05:43:50.730Z,63.35
2019-02-19T05:44:50.729Z,63.04
2019-02-19T05:45:50.717Z,63.04
2019-02-19T05:46:50.749Z,63.25
2019-02-19T05:47:50.713Z,63.25
2019-02-19T05:48:50.697Z,63.04
2019-02-19T05:49:50.668Z,63.04
2019-02-19T05:50:50.691Z,63.04
2019-02-19T05:51:50.646Z,62.94
2019-02-19T05:52:50.671Z,63.15
2019-02-19T05:53:50.636Z,63.35
2019-02-19T05:54:50.622Z,63.04
2019-02-19T05:55:50.620Z,63.25
2019-02-19T05:56:50.593Z,63.25
2019-02-19T05:57:50.604Z,63.15
2019-02-19T05:58:50.650Z,63.35
2019-02-19T05:59:50.568Z,63.87
2019-02-19T06:00:50.564Z,63.25
2019-02-19T06:01:50.542Z,63.46
2019-02-19T06:02:50.566Z,62.94
2019-02-19T06:03:50.517Z,62.94
2019-02-19T06:04:50.511Z,62.84
2019-02-19T06:05:50.501Z,62.94
2019-02-19T06:06:50.493Z,62.84
2019-02-19T06:07:50.477Z,62.94
2019-02-19T06:08:50.482Z,63.04
2019-02-19T06:09:50.455Z,63.15
2019-02-19T06:10:50.441Z,62.94
2019-02-19T06:11:50.428Z,63.22
2019-02-19T06:12:50.427Z,62.81
2019-02-19T06:13:50.859Z,62.29
2019-02-19T06:14:50.404Z,62.29
2019-02-19T06:15:50.408Z,62.19
2019-02-19T06:16:58.097Z,62.40
2019-02-19T06:17:51.374Z,62.29
2019-02-19T06:18:50.363Z,62.40
2019-02-19T06:19:50.348Z,61.91
2019-02-19T06:20:50.400Z,62.08
2019-02-19T06:21:50.325Z,62.29
2019-02-19T06:22:50.312Z,61.98
2019-02-19T06:23:50.301Z,62.08
2019-02-19T06:24:50.295Z,61.98
2019-02-19T06:25:50.310Z,62.60
2019-02-19T06:26:50.317Z,62.53
2019-02-19T06:27:51.258Z,62.50
2019-02-19T06:28:50.260Z,62.71
2019-02-19T06:29:50.233Z,62.74
2019-02-19T06:30:50.232Z,63.04
2019-02-19T06:31:50.263Z,63.15
2019-02-19T06:32:50.210Z,63.25
2019-02-19T06:33:50.190Z,63.15
2019-02-19T06:34:50.216Z,63.15
2019-02-19T06:35:50.172Z,62.60
2019-02-19T06:36:50.200Z,62.92
2019-02-19T06:37:50.161Z,62.74
2019-02-19T06:38:50.144Z,62.74
2019-02-19T06:39:50.172Z,63.46
2019-02-19T06:40:50.116Z,63.04
2019-02-19T06:41:50.141Z,62.81
2019-02-19T06:42:50.097Z,62.40
2019-02-19T06:43:50.087Z,62.50
2019-02-19T06:44:50.080Z,62.50
2019-02-19T06:45:50.126Z,62.60
2019-02-19T06:46:50.090Z,62.16
2019-02-19T06:47:50.055Z,62.19
2019-02-19T06:48:50.039Z,61.98
2019-02-19T06:49:50.027Z,62.19
2019-02-19T06:50:50.015Z,62.19
2019-02-19T06:51:50.169Z,62.29
2019-02-19T06:52:49.988Z,62.50
2019-02-19T06:53:49.980Z,62.16
2019-02-19T06:54:49.983Z,62.19
2019-02-19T06:55:49.958Z,61.96
2019-02-19T06:56:49.983Z,61.96
2019-02-19T06:57:49.940Z,61.52
2019-02-19T06:58:49.942Z,61.44
2019-02-19T06:59:49.923Z,61.65
2019-02-19T07:00:49.902Z,61.52
2019-02-19T07:01:49.913Z,61.75
2019-02-19T07:02:49.887Z,61.61
2019-02-19T07:03:49.885Z,61.41
2019-02-19T07:04:49.864Z,61.52
2019-02-19T07:05:49.878Z,61.31
2019-02-19T07:06:49.861Z,61.31
2019-02-19T07:07:49.876Z,61.21
2019-02-19T07:08:49.853Z,61.10
2019-02-19T07:09:49.821Z,61.10
2019-02-19T07:10:49.821Z,61.31
2019-02-19T07:11:49.811Z,61.21
2019-02-19T07:12:49.776Z,61.10
2019-02-19T07:13:49.766Z,61.18
2019-02-19T07:14:49.754Z,61.18
2019-02-19T07:15:49.743Z,60.77
2019-02-19T07:16:49.794Z,60.66
2019-02-19T07:17:49.756Z,60.87
2019-02-19T07:18:49.713Z,60.53
2019-02-19T07:19:49.708Z,60.22
2019-02-19T07:20:49.700Z,60.22
2019-02-19T07:21:49.729Z,60.22
2019-02-19T07:22:49.677Z,60.22
2019-02-19T07:23:49.663Z,60.33
2019-02-19T07:24:49.648Z,60.33
2019-02-19T07:25:49.643Z,60.63
2019-02-19T07:26:49.668Z,60.53
2019-02-19T07:27:49.620Z,60.12
2019-02-19T07:28:49.637Z,60.33
2019-02-19T07:29:49.596Z,60.12
2019-02-19T07:30:49.584Z,60.22
2019-02-19T07:31:49.576Z,60.09
2019-02-19T07:32:49.592Z,60.22
2019-02-19T07:33:49.557Z,60.09
2019-02-19T07:34:49.547Z,59.78
2019-02-19T07:35:49.531Z,59.58
2019-02-19T07:36:49.536Z,59.68
2019-02-19T07:37:49.536Z,59.58
2019-02-19T07:38:49.505Z,59.37
2019-02-19T07:39:49.558Z,59.78
2019-02-19T07:40:49.475Z,59.55
2019-02-19T07:41:49.468Z,59.45
2019-02-19T07:42:49.461Z,58.62
2019-02-19T07:43:49.479Z,58.70
2019-02-19T07:44:49.441Z,59.01
2019-02-19T07:45:49.431Z,58.50
2019-02-19T07:46:49.418Z,59.11
2019-02-19T07:47:49.408Z,59.31
2019-02-19T07:48:49.423Z,58.50
2019-02-19T07:49:49.389Z,58.39
2019-02-19T07:50:49.376Z,58.50
2019-02-19T07:51:50.328Z,58.39
2019-02-19T07:52:49.350Z,59.22
2019-02-19T07:53:49.340Z,58.80
2019-02-19T07:54:50.351Z,58.80
2019-02-19T07:55:49.317Z,58.70
2019-02-19T07:56:49.312Z,59.22
2019-02-19T07:57:49.302Z,59.45
2019-02-19T07:58:49.291Z,59.31
2019-02-19T07:59:49.281Z,58.39
2019-02-19T08:00:49.288Z,58.50
2019-02-19T08:01:49.254Z,58.80
2019-02-19T08:02:49.272Z,58.98
2019-02-19T08:03:49.249Z,58.57
2019-02-19T08:04:49.226Z,58.57
2019-02-19T08:05:49.278Z,58.80
2019-02-19T08:06:49.199Z,58.80
2019-02-19T08:07:49.188Z,58.70
2019-02-19T08:08:49.201Z,58.67
2019-02-19T08:09:49.174Z,58.57
2019-02-19T08:10:49.192Z,58.75
2019-02-19T08:11:49.156Z,58.78
2019-02-19T08:12:49.140Z,57.93
2019-02-19T08:13:49.130Z,57.72
2019-02-19T08:14:49.133Z,57.79
2019-02-19T08:15:49.139Z,57.28
2019-02-19T08:16:49.099Z,57.79
2019-02-19T08:17:49.092Z,57.59
2019-02-19T08:18:49.101Z,57.28
2019-02-19T08:19:49.066Z,58.11
2019-02-19T08:20:49.050Z,57.28
2019-02-19T08:21:49.039Z,56.95
2019-02-19T08:22:49.068Z,56.95
2019-02-19T08:23:49.046Z,56.30
2019-02-19T08:24:49.008Z,56.71
2019-02-19T08:25:49.007Z,56.30
2019-02-19T08:26:49.000Z,56.41
2019-02-19T08:27:48.976Z,56.51
2019-02-19T08:28:49.142Z,56.30
2019-02-19T08:29:48.964Z,56.51
2019-02-19T08:30:48.950Z,56.71
2019-02-19T08:31:48.941Z,56.30
2019-02-19T08:32:48.928Z,56.28
2019-02-19T08:33:48.938Z,56.59
2019-02-19T08:34:48.922Z,56.28
2019-02-19T08:35:48.964Z,56.56
2019-02-19T08:36:48.910Z,56.15
2019-02-19T08:37:48.915Z,56.05
2019-02-19T08:38:48.901Z,56.56
2019-02-19T08:39:48.893Z,56.15
2019-02-19T08:40:48.846Z,55.82
2019-02-19T08:41:48.844Z,55.85
2019-02-19T08:42:48.822Z,55.74
2019-02-19T08:43:48.811Z,56.15
2019-02-19T08:44:48.843Z,56.67
2019-02-19T08:45:48.783Z,56.56
2019-02-19T08:46:48.774Z,56.56
2019-02-19T08:47:48.762Z,56.46
2019-02-19T08:48:48.757Z,56.46
2019-02-19T08:49:48.748Z,56.35
2019-02-19T08:50:48.771Z,56.90
2019-02-19T08:51:55.894Z,56.77
2019-02-19T08:52:49.715Z,57.00
2019-02-19T08:53:48.698Z,57.18
2019-02-19T08:54:48.726Z,57.10
2019-02-19T08:55:48.688Z,57.31
2019-02-19T08:56:48.669Z,56.90
2019-02-19T08:57:48.659Z,57.38
2019-02-19T08:58:48.649Z,57.10
2019-02-19T08:59:48.634Z,57.28
2019-02-19T09:00:48.657Z,56.77
2019-02-19T09:01:48.650Z,57.05
2019-02-19T09:02:48.611Z,56.23
2019-02-19T09:03:48.604Z,56.54
2019-02-19T09:04:48.588Z,56.41
2019-02-19T09:05:48.602Z,56.20
2019-02-19T09:06:48.601Z,55.56
2019-02-19T09:07:48.555Z,55.05
2019-02-19T09:08:48.544Z,55.33
2019-02-19T09:09:48.535Z,54.21
2019-02-19T09:10:48.539Z,55.36
2019-02-19T09:11:48.506Z,56.20
2019-02-19T09:12:48.503Z,56.10
2019-02-19T09:13:48.503Z,56.51
2019-02-19T09:14:49.415Z,56.61
2019-02-19T09:15:48.512Z,56.10
2019-02-19T09:16:48.456Z,56.95
2019-02-19T09:17:52.028Z,56.95
2019-02-19T09:18:48.429Z,57.05
2019-02-19T09:19:48.419Z,57.76
2019-02-19T09:20:48.441Z,57.87
2019-02-19T09:21:48.409Z,57.35
2019-02-19T09:22:48.390Z,57.05
2019-02-19T09:23:48.383Z,57.87
2019-02-19T09:24:48.364Z,57.35
2019-02-19T09:25:48.374Z,57.35
2019-02-19T09:26:48.354Z,57.35
2019-02-19T09:27:48.339Z,57.97
2019-02-19T09:28:48.779Z,58.17
2019-02-19T09:29:48.310Z,57.87
2019-02-19T09:30:48.323Z,57.66
2019-02-19T09:31:48.290Z,57.97
2019-02-19T09:32:48.284Z,57.25
2019-02-19T09:33:48.279Z,58.17
2019-02-19T09:34:48.263Z,58.38
2019-02-19T09:35:48.277Z,58.72
2019-02-19T09:36:48.240Z,58.81
2019-02-19T09:37:48.226Z,58.72
2019-02-19T09:38:48.226Z,58.61
2019-02-19T09:39:48.203Z,58.72
2019-02-19T09:40:48.224Z,59.23
2019-02-19T09:41:48.192Z,59.02
2019-02-19T09:42:48.172Z,59.12
2019-02-19T09:43:48.160Z,58.92
2019-02-19T09:44:48.157Z,59.09
2019-02-19T09:45:48.849Z,59.12
2019-02-19T09:46:48.140Z,59.23
2019-02-19T09:47:48.125Z,59.53
2019-02-19T09:48:48.109Z,59.43
2019-02-19T09:49:48.095Z,58.92
2019-02-19T09:50:48.110Z,59.00
2019-02-19T09:51:48.079Z,58.48
2019-02-19T09:52:48.071Z,58.89
2019-02-19T09:53:48.060Z,58.45
2019-02-19T09:54:48.050Z,58.15
2019-02-19T09:55:48.085Z,57.92
2019-02-19T09:56:48.023Z,57.94
2019-02-19T09:57:48.015Z,58.04
2019-02-19T09:58:48.005Z,58.04
2019-02-19T09:59:47.995Z,58.15
2019-02-19T10:00:48.002Z,57.94
2019-02-19T10:01:48.015Z,58.04
2019-02-19T10:02:47.960Z,57.94
2019-02-19T10:03:47.950Z,58.66
2019-02-19T10:04:47.943Z,58.35
2019-02-19T10:05:48.205Z,58.35
2019-02-19T10:06:47.917Z,58.76
2019-02-19T10:07:47.911Z,58.45
2019-02-19T10:08:47.894Z,58.15
2019-02-19T10:09:47.884Z,58.97
2019-02-19T10:10:47.904Z,58.86
2019-02-19T10:11:47.859Z,59.68
2019-02-19T10:12:47.859Z,59.58
2019-02-19T10:13:47.846Z,59.89
2019-02-19T10:14:47.826Z,60.02
2019-02-19T10:15:47.839Z,60.42
2019-02-19T10:16:47.813Z,60.12
2019-02-19T10:17:47.846Z,60.42
2019-02-19T10:18:47.791Z,60.84
2019-02-19T10:19:47.778Z,60.97
2019-02-19T10:20:47.786Z,60.94
2019-02-19T10:21:47.757Z,61.15
2019-02-19T10:22:47.746Z,61.15
2019-02-19T10:23:47.726Z,60.94
2019-02-19T10:24:47.727Z,60.84
2019-02-19T10:25:47.740Z,60.94
2019-02-19T10:26:49.583Z,60.63
2019-02-19T10:27:47.694Z,60.84
2019-02-19T10:28:47.675Z,60.63
2019-02-19T10:29:47.690Z,60.40
2019-02-19T10:30:47.663Z,60.60
2019-02-19T10:31:47.647Z,60.50
2019-02-19T10:32:47.643Z,60.19
2019-02-19T10:33:47.644Z,60.40
2019-02-19T10:34:47.611Z,60.71
2019-02-19T10:35:47.602Z,60.81
2019-02-19T10:36:47.595Z,60.91
2019-02-19T10:37:47.584Z,60.91
2019-02-19T10:38:47.608Z,60.81
2019-02-19T10:39:47.563Z,61.11
2019-02-19T10:40:47.547Z,61.11
2019-02-19T10:41:47.537Z,61.11
2019-02-19T10:42:47.561Z,61.22
2019-02-19T10:43:47.522Z,60.91
2019-02-19T10:44:47.506Z,61.11
2019-02-19T10:45:47.499Z,61.01
2019-02-19T10:46:47.483Z,61.01
2019-02-19T10:47:47.469Z,61.01
2019-02-19T10:48:47.489Z,60.71
2019-02-19T10:49:47.461Z,60.71
2019-02-19T10:50:47.442Z,60.71
2019-02-19T10:51:47.432Z,60.71
2019-02-19T10:52:47.412Z,60.91
2019-02-19T10:53:47.444Z,60.78
2019-02-19T10:54:47.392Z,60.58
2019-02-19T10:55:47.382Z,60.58
2019-02-19T10:56:47.375Z,60.37
2019-02-19T10:57:47.377Z,60.37
2019-02-19T10:58:47.356Z,60.27
2019-02-19T10:59:47.412Z,60.06
2019-02-19T11:00:47.350Z,60.17
2019-02-19T11:01:47.314Z,60.27
2019-02-19T11:02:47.340Z,60.03
2019-02-19T11:03:47.302Z,60.03
2019-02-19T11:04:47.309Z,59.73
2019-02-19T11:05:47.274Z,59.73
2019-02-19T11:06:47.270Z,59.94
2019-02-19T11:07:47.248Z,60.06
2019-02-19T11:08:47.255Z,60.24
2019-02-19T11:09:47.260Z,60.14
2019-02-19T11:10:47.230Z,60.14
2019-02-19T11:11:47.215Z,59.73
2019-02-19T11:12:47.202Z,60.01
2019-02-19T11:13:47.187Z,59.60
2019-02-19T11:14:47.210Z,59.50
2019-02-19T11:15:47.193Z,59.06
2019-02-19T11:16:47.160Z,58.75
2019-02-19T11:17:47.151Z,58.86
2019-02-19T11:18:47.139Z,58.04
2019-02-19T11:19:47.123Z,58.75
2019-02-19T11:20:47.150Z,58.34
2019-02-19T11:21:47.106Z,58.65
2019-02-19T11:22:47.097Z,58.45
2019-02-19T11:23:47.087Z,58.55
2019-02-19T11:24:47.069Z,58.25
2019-02-19T11:25:47.057Z,58.96
2019-02-19T11:26:47.071Z,58.98
2019-02-19T11:27:47.056Z,58.75
2019-02-19T11:28:47.034Z,58.75
2019-02-19T11:29:47.030Z,58.75
2019-02-19T11:30:47.012Z,58.65
2019-02-19T11:31:47.049Z,58.14
2019-02-19T11:32:46.995Z,58.34
2019-02-19T11:33:46.986Z,58.55
2019-02-19T11:34:46.975Z,58.14
2019-02-19T11:35:46.959Z,58.45
2019-02-19T11:36:46.939Z,59.19
2019-02-19T11:37:47.021Z,59.19
2019-02-19T11:38:46.920Z,59.19
2019-02-19T11:39:46.909Z,58.98
2019-02-19T11:40:46.924Z,58.96
2019-02-19T11:41:46.906Z,58.55
2019-02-19T11:42:46.890Z,58.65
2019-02-19T11:43:46.902Z,59.47
2019-02-19T11:44:46.855Z,59.09
2019-02-19T11:45:46.843Z,59.42
2019-02-19T11:46:46.854Z,59.39
2019-02-19T11:47:46.822Z,59.60
2019-02-19T11:48:46.853Z,59.30
2019-02-19T11:49:46.807Z,59.50
2019-02-19T11:50:46.791Z,59.91
2019-02-19T11:51:46.786Z,59.60
2019-02-19T11:52:46.782Z,60.14
2019-02-19T11:53:46.764Z,60.35
2019-02-19T11:54:46.788Z,60.35
2019-02-19T11:55:46.774Z,60.35
2019-02-19T11:56:46.728Z,60.03
2019-02-19T11:57:46.722Z,60.35
2019-02-19T11:58:46.720Z,60.35
2019-02-19T11:59:46.695Z,61.09
2019-02-19T12:00:46.720Z,60.88
2019-02-19T12:01:46.682Z,60.99
2019-02-19T12:02:46.668Z,61.09
2019-02-19T12:03:46.660Z,61.06
2019-02-19T12:04:46.655Z,60.85
2019-02-19T12:05:46.665Z,60.55
2019-02-19T12:06:46.681Z,60.11
2019-02-19T12:07:46.616Z,60.11
2019-02-19T12:08:46.599Z,60.11
2019-02-19T12:09:46.592Z,59.80
2019-02-19T12:10:46.621Z,59.60
2019-02-19T12:11:46.573Z,59.80
2019-02-19T12:12:46.565Z,60.01
2019-02-19T12:13:46.552Z,60.11
2019-02-19T12:14:46.549Z,60.01
2019-02-19T12:15:46.529Z,60.01
2019-02-19T12:16:46.534Z,60.11
2019-02-19T12:17:46.504Z,60.21
2019-02-19T12:18:46.601Z,59.78
2019-02-19T12:19:46.483Z,59.78
2019-02-19T12:20:46.478Z,59.78
2019-02-19T12:21:46.494Z,59.78
2019-02-19T12:22:46.452Z,59.88
2019-02-19T12:23:46.443Z,59.57
2019-02-19T12:24:46.434Z,59.91
2019-02-19T12:25:46.427Z,59.80
2019-02-19T12:26:46.412Z,60.08
2019-02-19T12:27:46.434Z,60.19
2019-02-19T12:28:46.387Z,60.11
2019-02-19T12:29:46.374Z,60.21
2019-02-19T12:30:46.365Z,60.42
2019-02-19T12:31:46.359Z,60.11
2019-02-19T12:32:46.350Z,59.98
2019-02-19T12:33:46.359Z,60.01
2019-02-19T12:34:46.329Z,59.57
2019-02-19T12:35:46.317Z,59.78
2019-02-19T12:36:46.299Z,59.57
2019-02-19T12:37:46.306Z,59.67
2019-02-19T12:38:46.314Z,59.60
2019-02-19T12:39:46.274Z,59.98
2019-02-19T12:40:46.271Z,59.60
2019-02-19T12:41:46.247Z,60.01
2019-02-19T12:42:46.237Z,59.98
2019-02-19T12:43:46.230Z,59.88
2019-02-19T12:44:46.257Z,59.47
2019-02-19T12:45:46.212Z,59.78
2019-02-19T12:46:46.201Z,59.27
2019-02-19T12:47:46.207Z,59.47
2019-02-19T12:48:54.190Z,59.57
2019-02-19T12:49:47.199Z,59.60
2019-02-19T12:50:46.163Z,59.78
2019-02-19T12:51:46.140Z,59.47
2019-02-19T12:52:46.134Z,59.47